x

Jonesport, Me - 20 Nm Se Of Jonesport, Me (44027) Wave Buoy

12:50pm - Tue 26th Jul 2016 All times are ADT. -3 hours from GMT.

  • Sig Wave height 2.6ft
  • Swell Direction
  • Peak Period 6s
  • Average Period 5s
  • Wind
    2mph, 4mph gusts
  • Sea Temp 58°f
  • Air Temp 62°f
  • Sea Pressure 1006.7mb
  • Jonesport, Me - 20 Nm Se Of Jonesport, Me
  • Jonesport, Me - 20 Nm Se Of Jonesport, Me

More Historic Weather Station data

Upgrade to MSW Pro to gain access to the past 30 days of data for over 8000 Wavebouys and Weather Stations around the globe.

Join Pro

Comparision Forecast

View Surf forecast
   
Tue 07/26 12:50pm 2.5ft 6s 5s 2 4 mph 1006.7mb 58f 62f
11:50am 2ft 6s 4s 2 4 mph 1006.9mb 56f 62f
10:50am 1.6ft 7s 4s 2 4 mph 1007mb 56f 62f
9:50am 1.6ft 7s 4s  -  2 mph 1007.1mb 56f 59f
8:50am 1.6ft 6s 5s 2 4 mph 1007.1mb 57f 59f
7:50am 1.6ft 6s 5s 7
mph
1007.1mb 56f 58f
6:50am 1.6ft 7s 5s 9
mph
1006.6mb 55f 59f
5:50am 2ft 7s 5s 11
mph
1006.1mb 56f 59f
4:50am 1.6ft 6s 5s 11 13 mph 1005.9mb 57f 60f
3:50am 1.6ft 7s 5s 7 9 mph 1007.3mb 55f 62f
2:50am 1.6ft 6s 4s 9 11 mph 1007.9mb 54f 60f
1:50am 1.6ft 7s 5s 4 7 mph 1008.5mb 54f 59f
12:50am 1.6ft 7s 5s 7 9 mph 1008.6mb 53f 58f
Mon 07/25 11:50pm 1.6ft 8s 5s 9 11 mph 1009.2mb 53f 58f
10:50pm 1.6ft 7s 5s 7 9 mph 1009.9mb 54f 58f
9:50pm 1.6ft 8s 5s 4 7 mph 1010.6mb 57f 60f
8:50pm 1.6ft 7s 6s 7
mph
1010.5mb 59f 61f
7:50pm 2ft 6s 6s 7 9 mph 1010.8mb 60f 63f
6:50pm 2ft 6s 6s 7
mph
1010.9mb 60f 63f
5:50pm 2.5ft 7s 6s 9
mph
1011.3mb 60f 63f
4:50pm 2ft 6s 6s 9
mph
1011.7mb 59f 63f
2:50pm 1.6ft 7s 5s 7
mph
1012.6mb 59f 64f
1:50pm 1.6ft 7s 5s 4 7 mph 1013mb 60f 63f
12:50pm 2ft 7s 5s 4
mph
1013.6mb 58f 61f
11:50am 2ft 7s 5s 2
mph
1013.7mb 55f 60f
10:50am 2ft 8s 5s 4
mph
1014mb 55f 58f
9:50am 2ft 7s 5s 4
mph
1014mb 55f 59f
8:50am 2ft 8s 6s 4
mph
1014.1mb 56f 58f
7:50am 2.5ft 8s 6s 4
mph
1013.7mb 55f 59f
6:50am 2.5ft 7s 6s 4 7 mph 1013.2mb 57f 59f
5:50am 2.5ft 8s 6s 4
mph
1012.6mb 57f 60f
4:50am 2.5ft 7s 6s 7 9 mph 1012.5mb 56f 59f
3:50am 2.5ft 7s 6s 7
mph
1012.6mb 56f 58f
2:50am 3ft 7s 5s 9
mph
1012.7mb 55f 58f
1:50am 2.5ft 7s 5s 9
mph
1012.9mb 56f 58f
12:50am 2.5ft 7s 5s 9
mph
1013mb 55f 58f
Sun 07/24 11:50pm 2.5ft 8s 5s 11
mph
1013.1mb 55f 59f
10:50pm 2.5ft 8s 5s 11 13 mph 1013.1mb 56f 59f
9:50pm 2.5ft 8s 6s 11
mph
1012.9mb 57f 59f
8:50pm 2.5ft 8s 6s 11
mph
1012.4mb 57f 60f
7:50pm 2.5ft 8s 6s 9 11 mph 1012mb 56f 61f
6:50pm 3ft 8s 7s 7 9 mph 1011.5mb 58f 62f
5:50pm 3ft 8s 7s 9
mph
1011mb 58f 63f
4:50pm 3ft 7s 7s 11 13 mph 1010.8mb 58f 63f
3:50pm 3ft 8s 6s 7 9 mph 1010.8mb 58f 62f
2:50pm 3ft 8s 6s 4
mph
1010.8mb 58f 62f
1:50pm 3ft 7s 6s 9
mph
1010.9mb 58f 61f
12:50pm 2.5ft 7s 6s 2 4 mph 1011.1mb 56f 61f
11:50am 2.5ft 8s 6s 7
mph
1011.3mb 57f 60f
10:50am 2.5ft 8s 6s 2 4 mph 1011.2mb 55f 59f
9:50am 2.5ft 8s 6s 2 4 mph 1010.7mb 54f 58f
8:50am 3.5ft 8s 6s 7
mph
1010.2mb 54f 59f
7:50am 3ft 8s 6s 4
mph
1009.7mb 54f 59f
6:50am 3.5ft 7s 6s 9 11 mph 1008.9mb 54f 58f
5:50am 3.5ft 7s 6s 9 11 mph 1008.1mb 55f 58f
4:50am 3.5ft 8s 6s 9
mph
1007.5mb 54f 57f
3:50am 3ft 6s 6s 4 7 mph 1007.4mb 54f 57f
2:50am 3ft 7s 5s 9 11 mph 1007.1mb 54f 58f
1:50am 2.5ft 6s 5s 9 11 mph 1007.2mb 53f 58f
12:50am 3ft 7s 5s 9 11 mph 1007mb 54f 59f
Sat 07/23 11:50pm 3ft 7s 5s 11
mph
1006.9mb 53f 59f
10:50pm 3ft 7s 5s 9
mph
1006.8mb 54f 59f
9:50pm 2.5ft 7s 5s 11 13 mph 1005.8mb 54f 59f
8:50pm 3ft 6s 5s 9
mph
1005.8mb 55f 59f
7:50pm 3.5ft 7s 5s 11 13 mph 1005.8mb 56f 62f
6:50pm 3ft 6s 5s 11
mph
1005.2mb 55f 61f
5:50pm 3ft 7s 5s 13 16 mph 1004.5mb 56f 61f
4:50pm 3.5ft 7s 6s 13 16 mph 1004.8mb 56f 61f
3:50pm 3.5ft 6s 6s 9 11 mph 1005.1mb 55f 61f
2:50pm 3ft 7s 5s 11 13 mph 1005.1mb 56f 59f
1:50pm 3.5ft 6s 5s 9 11 mph 1005.8mb 55f 59f
12:50pm 4ft 7s 5s 9 11 mph 1005.9mb 54f 59f
11:50am 4ft 7s 5s 11 13 mph 1005.9mb 54f 59f
10:50am 4.5ft 7s 6s 11 13 mph 1006.2mb 54f 60f
9:50am 4.5ft 8s 6s 11
mph
1005.9mb 54f 61f
8:50am 4.5ft 8s 6s 9
mph
1005.6mb 54f 60f
7:50am 4.5ft 8s 6s 7 9 mph 1005mb 54f 58f
6:50am 4.5ft 8s 6s 2 4 mph 1004.8mb 54f 61f
5:50am 4ft 8s 6s 11 13 mph 1004.8mb 55f 59f
4:50am 4.5ft 7s 6s 9 11 mph 1004.4mb 55f 59f
3:50am 5ft 8s 6s 13 16 mph 1004.6mb 55f 60f
2:50am 5ft 7s 6s 13 16 mph 1004.3mb 55f 60f
1:50am 5ft 7s 6s 11 13 mph 1004.8mb 55f 60f
12:50am 5ft 7s 5s 11
mph
1004.7mb 55f 59f
Fri 07/22 11:50pm 5ft 7s 5s 13 16 mph 1005.2mb 55f 59f
10:50pm 6ft 7s 5s 16 20 mph 1004.9mb 54f 60f
9:50pm 5ft 7s 5s 16 18 mph 1004.7mb 54f 61f
8:50pm 5.5ft 7s 5s 18 22 mph 1004.1mb 55f 62f
7:50pm 5ft 7s 6s 18 22 mph 1004.4mb 56f 63f
6:50pm 4.5ft 7s 5s 18 20 mph 1004.5mb 56f 62f
5:50pm 4.5ft 7s 5s 16 18 mph 1004.9mb 56f 62f
4:50pm 4.5ft 7s 5s 18 20 mph 1005.5mb 57f 62f